createdAt,value
2019-02-18T00:01:16.951Z,45.50
2019-02-18T00:03:45.448Z,87.25
2019-02-18T00:06:14.141Z,13.15
2019-02-18T00:08:42.597Z,90.15
2019-02-18T00:11:14.339Z,13.35
2019-02-18T00:13:43.011Z,13.18
2019-02-18T00:16:11.799Z,14.33
2019-02-18T00:18:40.244Z,31.90
2019-02-18T00:21:09.032Z,16.57
2019-02-18T00:23:38.203Z,13.40
2019-02-18T00:26:06.958Z,16.37
2019-02-18T00:28:37.008Z,13.98
2019-02-18T00:31:05.606Z,30.95
2019-02-18T00:33:34.061Z,14.28
2019-02-18T00:36:02.534Z,14.10
2019-02-18T00:38:31.237Z,57.00
2019-02-18T00:40:59.712Z,60.00
2019-02-18T00:43:28.209Z,13.62
2019-02-18T00:45:57.115Z,41.48
2019-02-18T00:48:25.812Z,39.85
2019-02-18T00:50:54.539Z,90.42
2019-02-18T00:53:23.250Z,20.62
2019-02-18T00:55:51.959Z,88.65
2019-02-18T00:58:20.914Z,56.02
2019-02-18T01:00:49.874Z,51.80
2019-02-18T01:03:18.572Z,18.10
2019-02-18T01:05:47.058Z,39.95
2019-02-18T01:08:15.538Z,12.90
2019-02-18T01:10:44.018Z,23.85
2019-02-18T01:13:12.714Z,15.03
2019-02-18T01:15:41.206Z,14.70
2019-02-18T01:18:09.652Z,10.88
2019-02-18T01:20:38.138Z,10.75
2019-02-18T01:23:07.074Z,11.00
2019-02-18T01:25:35.540Z,10.90
2019-02-18T01:28:04.495Z,11.45
2019-02-18T01:30:32.955Z,11.63
2019-02-18T01:33:01.647Z,12.13
2019-02-18T01:35:30.139Z,12.15
2019-02-18T01:37:58.825Z,11.43
2019-02-18T01:40:27.355Z,12.15
2019-02-18T01:42:55.809Z,11.43
2019-02-18T01:45:24.263Z,12.15
2019-02-18T01:47:53.014Z,11.50
2019-02-18T01:50:21.721Z,10.70
2019-02-18T01:52:50.205Z,11.18
2019-02-18T01:55:19.131Z,11.55
2019-02-18T01:57:47.613Z,11.30
2019-02-18T02:00:16.380Z,11.20
2019-02-18T02:02:44.870Z,11.73
2019-02-18T02:05:14.638Z,11.43
2019-02-18T02:07:43.584Z,11.12
2019-02-18T02:10:13.174Z,11.93
2019-02-18T02:12:41.662Z,11.88
2019-02-18T02:15:16.414Z,11.18
2019-02-18T02:17:45.619Z,11.35
2019-02-18T02:20:14.113Z,11.20
2019-02-18T02:22:42.819Z,11.85
2019-02-18T02:25:11.267Z,12.75
2019-02-18T02:27:40.023Z,11.18
2019-02-18T02:30:08.653Z,11.50
2019-02-18T02:32:37.118Z,11.60
2019-02-18T02:35:05.583Z,10.72
2019-02-18T02:37:34.279Z,11.78
2019-02-18T02:40:02.966Z,12.25
2019-02-18T02:42:31.423Z,10.80
2019-02-18T02:45:02.606Z,11.28
2019-02-18T02:47:31.354Z,11.30
2019-02-18T02:49:59.811Z,11.43
2019-02-18T02:52:28.534Z,11.10
2019-02-18T02:54:57.240Z,10.55
2019-02-18T02:57:26.012Z,10.80
2019-02-18T02:59:54.469Z,10.13
2019-02-18T03:02:23.633Z,11.08
2019-02-18T03:04:52.587Z,10.15
2019-02-18T03:07:21.077Z,10.23
2019-02-18T03:09:49.518Z,12.10
2019-02-18T03:12:18.216Z,10.88
2019-02-18T03:14:46.670Z,10.38
2019-02-18T03:17:15.150Z,10.35
2019-02-18T03:19:44.098Z,10.55
2019-02-18T03:22:12.802Z,11.18
2019-02-18T03:25:19.340Z,10.45
2019-02-18T03:27:48.502Z,10.08
2019-02-18T03:30:49.512Z,10.75
2019-02-18T03:33:21.687Z,10.68
2019-02-18T03:35:50.126Z,10.40
2019-02-18T03:38:18.844Z,9.73
2019-02-18T03:40:47.516Z,10.70
2019-02-18T03:43:16.226Z,10.40
2019-02-18T03:45:45.165Z,10.55
2019-02-18T03:48:14.424Z,11.00
2019-02-18T03:50:43.132Z,9.88
2019-02-18T03:53:11.828Z,10.98
2019-02-18T03:55:40.269Z,11.45
2019-02-18T03:58:08.985Z,10.58
2019-02-18T04:00:37.701Z,11.15
2019-02-18T04:03:06.415Z,11.12
2019-02-18T04:05:35.605Z,10.90
2019-02-18T04:08:04.085Z,11.25
2019-02-18T04:10:34.885Z,11.83
2019-02-18T04:13:03.937Z,11.85
2019-02-18T04:15:32.951Z,11.57
2019-02-18T04:18:01.402Z,11.75
2019-02-18T04:20:30.119Z,11.95
2019-02-18T04:22:58.601Z,11.85
2019-02-18T04:25:27.297Z,10.90
2019-02-18T04:27:58.724Z,11.22
2019-02-18T04:30:27.177Z,11.45
2019-02-18T04:32:55.692Z,12.63
2019-02-18T04:35:24.113Z,12.75
2019-02-18T04:37:54.856Z,11.88
2019-02-18T04:40:23.798Z,12.28
2019-02-18T04:42:52.244Z,11.68
2019-02-18T04:45:20.932Z,11.88
2019-02-18T04:47:49.404Z,12.30
2019-02-18T04:50:17.840Z,12.45
2019-02-18T04:52:46.566Z,12.23
2019-02-18T04:55:15.011Z,11.85
2019-02-18T04:57:43.711Z,11.45
2019-02-18T05:00:12.407Z,12.18
2019-02-18T05:02:41.158Z,12.05
2019-02-18T05:05:09.902Z,11.80
2019-02-18T05:07:38.369Z,12.53
2019-02-18T05:10:08.103Z,12.90
2019-02-18T05:12:37.060Z,11.63
2019-02-18T05:15:05.610Z,12.35
2019-02-18T05:17:34.397Z,12.75
2019-02-18T05:20:02.876Z,13.00
2019-02-18T05:22:31.582Z,13.88
2019-02-18T05:25:00.545Z,13.45
2019-02-18T05:27:33.198Z,13.25
2019-02-18T05:29:59.894Z,14.75
2019-02-18T05:32:28.627Z,14.70
2019-02-18T05:34:57.587Z,13.25
2019-02-18T05:37:26.037Z,14.23
2019-02-18T05:39:55.480Z,14.13
2019-02-18T05:42:24.159Z,12.80
2019-02-18T05:44:52.585Z,14.23
2019-02-18T05:47:21.524Z,14.18
2019-02-18T05:49:49.987Z,13.93
2019-02-18T05:52:18.661Z,13.50
2019-02-18T05:54:47.377Z,14.78
2019-02-18T05:57:15.822Z,14.18
2019-02-18T05:59:44.529Z,14.38
2019-02-18T06:02:12.988Z,15.70
2019-02-18T06:04:41.701Z,15.65
2019-02-18T06:07:10.397Z,16.00
2019-02-18T06:09:38.862Z,15.30
2019-02-18T06:12:07.316Z,15.13
2019-02-18T06:14:35.782Z,15.50
2019-02-18T06:17:04.518Z,16.25
2019-02-18T06:19:32.988Z,15.38
2019-02-18T06:22:01.700Z,15.15
2019-02-18T06:24:30.409Z,15.28
2019-02-18T06:26:59.086Z,14.20
2019-02-18T06:29:27.782Z,14.58
2019-02-18T06:31:56.238Z,13.05
2019-02-18T06:34:24.948Z,14.03
2019-02-18T06:36:53.647Z,14.83
2019-02-18T06:39:22.133Z,15.70
2019-02-18T06:41:50.558Z,15.45
2019-02-18T06:44:22.025Z,16.30
2019-02-18T06:46:53.048Z,16.55
2019-02-18T06:49:24.558Z,16.15
2019-02-18T06:51:53.488Z,15.55
2019-02-18T06:54:22.449Z,16.05
2019-02-18T06:57:22.232Z,17.48
2019-02-18T06:59:53.898Z,15.72
2019-02-18T07:02:26.875Z,17.07
2019-02-18T07:05:23.570Z,18.50
2019-02-18T07:08:14.352Z,16.73
2019-02-18T07:11:07.908Z,16.35
2019-02-18T07:13:36.625Z,17.67
2019-02-18T07:16:05.094Z,15.15
2019-02-18T07:18:33.989Z,16.87
2019-02-18T07:21:02.479Z,17.00
2019-02-18T07:23:31.002Z,21.62
2019-02-18T07:25:59.716Z,21.68
2019-02-18T07:28:28.416Z,21.23
2019-02-18T07:30:57.191Z,18.25
2019-02-18T07:33:25.634Z,17.55
2019-02-18T07:35:54.421Z,17.12
2019-02-18T07:38:23.143Z,16.57
2019-02-18T07:40:51.851Z,16.82
2019-02-18T07:43:22.983Z,17.12
2019-02-18T07:45:51.030Z,16.75
2019-02-18T07:48:19.555Z,16.35
2019-02-18T07:50:48.037Z,16.87
2019-02-18T07:53:19.651Z,17.00
2019-02-18T07:55:48.364Z,16.37
2019-02-18T07:58:17.299Z,16.77
2019-02-18T08:00:45.808Z,17.65
2019-02-18T08:03:14.783Z,16.67
2019-02-18T08:05:43.771Z,15.75
2019-02-18T08:08:12.756Z,15.58
2019-02-18T08:10:41.253Z,16.50
2019-02-18T08:13:09.696Z,15.93
2019-02-18T08:15:38.168Z,15.80
2019-02-18T08:18:06.877Z,16.17
2019-02-18T08:20:35.620Z,15.88
2019-02-18T08:23:04.065Z,17.20
2019-02-18T08:25:32.789Z,16.95
2019-02-18T08:28:01.493Z,16.05
2019-02-18T08:30:30.257Z,16.25
2019-02-18T08:32:58.736Z,15.88
2019-02-18T08:35:27.551Z,15.75
2019-02-18T08:37:56.005Z,16.80
2019-02-18T08:40:25.313Z,15.88
2019-02-18T08:42:54.110Z,16.02
2019-02-18T08:45:22.810Z,16.65
2019-02-18T08:47:51.500Z,16.15
2019-02-18T08:50:20.263Z,16.35
2019-02-18T08:52:48.815Z,15.90
2019-02-18T08:55:17.324Z,15.75
2019-02-18T08:57:45.916Z,15.88
2019-02-18T09:00:16.000Z,16.12
2019-02-18T09:02:44.715Z,15.85
2019-02-18T09:05:13.327Z,16.02
2019-02-18T09:07:42.158Z,16.42
2019-02-18T09:10:11.204Z,16.48
2019-02-18T09:12:40.007Z,17.12
2019-02-18T09:15:09.300Z,17.25
2019-02-18T09:17:38.002Z,17.48
2019-02-18T09:20:07.415Z,17.12
2019-02-18T09:22:54.397Z,16.57
2019-02-18T09:25:31.864Z,16.50
2019-02-18T09:28:00.346Z,16.12
2019-02-18T09:30:31.529Z,16.50
2019-02-18T09:33:00.497Z,16.93
2019-02-18T09:35:28.982Z,17.50
2019-02-18T09:37:57.482Z,16.60
2019-02-18T09:40:25.946Z,17.45
2019-02-18T09:42:54.417Z,17.12
2019-02-18T09:45:23.133Z,16.42
2019-02-18T09:47:54.098Z,17.87
2019-02-18T09:50:22.129Z,17.48
2019-02-18T09:52:50.855Z,15.43
2019-02-18T09:55:19.333Z,17.35
2019-02-18T09:57:48.041Z,16.55
2019-02-18T10:00:16.498Z,16.32
2019-02-18T10:02:44.972Z,16.42
2019-02-18T10:05:13.449Z,16.87
2019-02-18T10:07:41.937Z,15.83
2019-02-18T10:10:10.700Z,15.70
2019-02-18T10:12:39.198Z,16.73
2019-02-18T10:15:07.948Z,17.48
2019-02-18T10:17:37.022Z,16.95
2019-02-18T10:20:05.735Z,16.00
2019-02-18T10:22:34.314Z,15.65
2019-02-18T10:25:02.836Z,16.32
2019-02-18T10:27:31.596Z,16.35
2019-02-18T10:30:04.793Z,16.35
2019-02-18T10:32:33.280Z,16.07
2019-02-18T10:35:01.821Z,16.52
2019-02-18T10:37:30.300Z,16.55
2019-02-18T10:39:58.773Z,16.15
2019-02-18T10:42:27.258Z,15.05
2019-02-18T10:44:56.198Z,15.15
2019-02-18T10:47:24.741Z,15.63
2019-02-18T10:49:53.757Z,15.45
2019-02-18T10:52:22.671Z,15.35
2019-02-18T10:54:51.448Z,15.80
2019-02-18T10:57:19.953Z,15.72
2019-02-18T10:59:48.401Z,16.45
2019-02-18T11:02:17.182Z,16.27
2019-02-18T11:04:45.639Z,17.15
2019-02-18T11:07:14.429Z,15.20
2019-02-18T11:09:43.109Z,15.70
2019-02-18T11:12:11.883Z,14.78
2019-02-18T11:14:40.663Z,15.30
2019-02-18T11:17:09.438Z,14.28
2019-02-18T11:19:38.272Z,14.58
2019-02-18T11:22:06.804Z,13.93
2019-02-18T11:24:35.818Z,15.43
2019-02-18T11:27:04.636Z,14.63
2019-02-18T11:29:33.333Z,13.93
2019-02-18T11:32:01.810Z,13.85
2019-02-18T11:34:30.284Z,13.60
2019-02-18T11:36:59.054Z,14.40
2019-02-18T11:39:27.801Z,14.73
2019-02-18T11:41:56.263Z,13.45
2019-02-18T11:44:24.987Z,15.23
2019-02-18T11:46:53.444Z,12.90
2019-02-18T11:49:22.175Z,13.15
2019-02-18T11:51:50.645Z,13.50
2019-02-18T11:54:19.748Z,12.47
2019-02-18T11:56:48.214Z,13.62
2019-02-18T11:59:24.062Z,12.68
2019-02-18T12:01:47.141Z,13.08
2019-02-18T12:04:15.873Z,13.18
2019-02-18T12:06:44.635Z,13.08
2019-02-18T12:09:13.629Z,13.00
2019-02-18T12:11:42.096Z,13.60
2019-02-18T12:14:10.607Z,12.80
2019-02-18T12:16:39.317Z,13.30
2019-02-18T12:19:07.794Z,13.38
2019-02-18T12:21:36.565Z,12.10
2019-02-18T12:24:05.293Z,12.93
2019-02-18T12:26:34.143Z,12.60
2019-02-18T12:29:02.940Z,12.93
2019-02-18T12:31:31.675Z,11.85
2019-02-18T12:34:00.439Z,11.85
2019-02-18T12:36:28.915Z,11.00
2019-02-18T12:38:58.123Z,12.33
2019-02-18T12:41:27.505Z,11.83
2019-02-18T12:43:55.994Z,11.25
2019-02-18T12:46:24.731Z,11.00
2019-02-18T12:48:53.228Z,12.07
2019-02-18T12:51:21.928Z,11.50
2019-02-18T12:53:50.657Z,11.85
2019-02-18T12:56:19.383Z,11.25
2019-02-18T12:58:54.566Z,11.73
2019-02-18T13:01:18.758Z,11.83
2019-02-18T13:03:47.487Z,11.85
2019-02-18T13:06:15.975Z,11.53
2019-02-18T13:08:44.928Z,11.93
2019-02-18T13:11:13.424Z,11.75
2019-02-18T13:13:42.144Z,12.43
2019-02-18T13:16:11.247Z,12.45
2019-02-18T13:18:40.002Z,12.90
2019-02-18T13:21:08.711Z,11.95
2019-02-18T13:23:37.422Z,12.28
2019-02-18T13:26:05.909Z,12.07
2019-02-18T13:28:34.397Z,11.93
2019-02-18T13:31:02.891Z,11.55
2019-02-18T13:33:31.734Z,11.18
2019-02-18T13:36:03.039Z,11.97
2019-02-18T13:38:31.745Z,46.92
2019-02-18T13:41:00.509Z,86.70
2019-02-18T13:43:29.237Z,13.93
2019-02-18T13:45:57.698Z,23.15
2019-02-18T13:48:26.512Z,64.75
2019-02-18T13:50:55.215Z,39.00
2019-02-18T13:53:23.974Z,12.60
2019-02-18T13:55:52.436Z,12.37
2019-02-18T13:58:20.950Z,13.13
2019-02-18T14:00:49.415Z,16.67
2019-02-18T14:03:18.153Z,14.50
2019-02-18T14:05:46.879Z,44.35
2019-02-18T14:08:15.359Z,18.90
2019-02-18T14:10:44.107Z,14.38
2019-02-18T14:13:12.569Z,18.12
2019-02-18T14:15:41.344Z,18.70
2019-02-18T14:18:09.835Z,13.80
2019-02-18T14:20:38.932Z,12.28
2019-02-18T14:23:07.381Z,14.43
2019-02-18T14:25:36.097Z,12.85
2019-02-18T14:28:04.579Z,18.57
2019-02-18T14:30:33.091Z,13.80
2019-02-18T14:33:03.821Z,16.25
2019-02-18T14:35:32.778Z,12.73
2019-02-18T14:38:01.484Z,14.05
2019-02-18T14:40:29.950Z,14.18
2019-02-18T14:42:58.655Z,21.35
2019-02-18T14:45:27.358Z,13.40
2019-02-18T14:47:56.067Z,13.13
2019-02-18T14:50:24.786Z,25.17
2019-02-18T14:52:53.311Z,19.45
2019-02-18T14:55:21.787Z,12.75
2019-02-18T14:57:50.508Z,17.85
2019-02-18T15:00:23.607Z,12.58
2019-02-18T15:02:57.117Z,13.28
2019-02-18T15:05:26.348Z,17.02
2019-02-18T15:07:54.772Z,14.53
2019-02-18T15:10:23.520Z,12.80
2019-02-18T15:12:51.953Z,13.80
2019-02-18T15:15:20.565Z,12.82
2019-02-18T15:17:49.283Z,16.48
2019-02-18T15:20:18.153Z,13.40
2019-02-18T15:22:46.856Z,17.20
2019-02-18T15:25:15.306Z,17.75
2019-02-18T15:27:44.012Z,12.90
2019-02-18T15:30:13.625Z,13.60
2019-02-18T15:32:42.412Z,12.82
2019-02-18T15:35:11.998Z,13.50
2019-02-18T15:37:40.711Z,13.30
2019-02-18T15:40:10.211Z,13.83
2019-02-18T15:42:42.205Z,13.60
2019-02-18T15:45:08.872Z,14.05
2019-02-18T15:47:37.769Z,13.25
2019-02-18T15:50:06.627Z,13.53
2019-02-18T15:52:35.649Z,32.55
2019-02-18T15:55:04.190Z,13.72
2019-02-18T15:57:32.904Z,16.50
2019-02-18T16:00:01.377Z,32.25
2019-02-18T16:02:37.794Z,19.00
2019-02-18T16:05:06.791Z,14.23
2019-02-18T16:07:35.499Z,14.30
2019-02-18T16:10:04.094Z,13.83
2019-02-18T16:12:32.637Z,12.95
2019-02-18T16:15:01.426Z,17.73
2019-02-18T16:17:30.113Z,14.30
2019-02-18T16:19:58.915Z,15.43
2019-02-18T16:22:27.704Z,14.20
2019-02-18T16:24:56.481Z,13.90
2019-02-18T16:27:25.197Z,14.30
2019-02-18T16:29:53.652Z,14.53
2019-02-18T16:32:22.191Z,14.63
2019-02-18T16:34:50.693Z,15.05
2019-02-18T16:37:19.435Z,15.18
2019-02-18T16:39:48.189Z,15.30
2019-02-18T16:42:16.972Z,13.50
2019-02-18T16:44:45.675Z,14.43
2019-02-18T16:47:14.171Z,13.48
2019-02-18T16:49:42.935Z,14.87
2019-02-18T16:52:12.565Z,14.23
2019-02-18T16:54:41.629Z,12.63
2019-02-18T16:57:10.720Z,13.13
2019-02-18T16:59:39.459Z,13.13
2019-02-18T17:02:07.921Z,12.95
2019-02-18T17:04:36.654Z,13.88
2019-02-18T17:07:05.380Z,13.75
2019-02-18T17:09:33.848Z,13.95
2019-02-18T17:12:02.943Z,14.07
2019-02-18T17:14:31.640Z,13.32
2019-02-18T17:17:00.411Z,14.03
2019-02-18T17:19:28.881Z,13.38
2019-02-18T17:21:57.828Z,13.43
2019-02-18T17:24:26.520Z,13.35
2019-02-18T17:26:55.368Z,14.53
2019-02-18T17:29:24.347Z,13.65
2019-02-18T17:31:52.924Z,14.45
2019-02-18T17:34:21.394Z,13.03
2019-02-18T17:36:50.104Z,12.40
2019-02-18T17:39:18.731Z,12.98
2019-02-18T17:41:47.206Z,12.70
2019-02-18T17:44:20.201Z,13.75
2019-02-18T17:46:45.841Z,13.00
2019-02-18T17:49:14.303Z,13.03
2019-02-18T17:51:42.788Z,12.53
2019-02-18T17:54:11.645Z,12.50
2019-02-18T17:56:40.108Z,12.68
2019-02-18T17:59:08.860Z,12.65
2019-02-18T18:01:37.575Z,13.28
2019-02-18T18:04:06.057Z,11.68
2019-02-18T18:06:34.839Z,14.03
2019-02-18T18:09:04.307Z,12.45
2019-02-18T18:11:32.853Z,13.00
2019-02-18T18:14:01.583Z,16.82
2019-02-18T18:16:30.308Z,17.48
2019-02-18T18:18:58.784Z,12.95
2019-02-18T18:21:27.738Z,17.27
2019-02-18T18:23:56.722Z,14.10
2019-02-18T18:26:25.578Z,12.37
2019-02-18T18:28:54.115Z,14.53
2019-02-18T18:31:22.579Z,21.17
2019-02-18T18:33:51.521Z,12.98
2019-02-18T18:36:20.238Z,16.05
2019-02-18T18:38:51.745Z,14.20
2019-02-18T18:41:20.364Z,13.30
2019-02-18T18:43:48.834Z,15.65
2019-02-18T18:46:17.553Z,13.03
2019-02-18T18:48:46.013Z,18.67
2019-02-18T18:51:14.474Z,14.28
2019-02-18T18:53:43.196Z,16.93
2019-02-18T18:56:12.202Z,18.35
2019-02-18T18:58:40.936Z,17.37
2019-02-18T19:01:10.416Z,22.82
2019-02-18T19:03:41.571Z,26.33
2019-02-18T19:06:10.289Z,15.70
2019-02-18T19:08:39.239Z,14.20
2019-02-18T19:11:07.714Z,15.10
2019-02-18T19:13:42.152Z,16.93
2019-02-18T19:16:09.761Z,17.17
2019-02-18T19:18:38.285Z,15.55
2019-02-18T19:21:07.034Z,24.47
2019-02-18T19:26:23.701Z,15.03
2019-02-18T19:28:52.193Z,15.28
2019-02-18T19:31:21.036Z,13.98
2019-02-18T19:33:51.313Z,13.20
2019-02-18T19:36:19.673Z,14.90
2019-02-18T19:38:48.186Z,14.15
2019-02-18T19:41:16.911Z,14.35
2019-02-18T19:43:50.400Z,16.52
2019-02-18T19:46:15.676Z,16.45
2019-02-18T19:48:44.360Z,14.90
2019-02-18T19:51:12.845Z,15.45
2019-02-18T19:53:41.597Z,15.65
2019-02-18T19:56:10.000Z,15.28
2019-02-18T19:58:38.701Z,15.15
2019-02-18T20:01:07.188Z,14.43
2019-02-18T20:03:35.890Z,15.00
2019-02-18T20:06:04.342Z,14.78
2019-02-18T20:08:33.005Z,16.15
2019-02-18T20:11:01.729Z,15.55
2019-02-18T20:13:30.462Z,14.55
2019-02-18T20:15:59.284Z,15.50
2019-02-18T20:18:28.218Z,15.00
2019-02-18T20:20:57.037Z,16.00
2019-02-18T20:23:25.487Z,14.73
2019-02-18T20:25:54.217Z,14.73
2019-02-18T20:28:22.980Z,18.40
2019-02-18T20:30:51.462Z,152.87
2019-02-18T20:33:20.155Z,192.18
2019-02-18T20:35:49.062Z,101.47
2019-02-18T20:38:17.775Z,156.20
2019-02-18T20:40:46.973Z,136.15
2019-02-18T20:43:15.427Z,96.45
2019-02-18T20:45:44.178Z,113.52
2019-02-18T20:48:12.641Z,118.45
2019-02-18T20:50:43.254Z,142.87
2019-02-18T20:53:15.822Z,90.77
2019-02-18T20:55:44.345Z,68.20
2019-02-18T20:58:12.808Z,63.30
2019-02-18T21:00:41.523Z,34.13
2019-02-18T21:03:10.632Z,39.60
2019-02-18T21:05:39.674Z,43.48
2019-02-18T21:08:08.363Z,35.15
2019-02-18T21:10:36.843Z,17.98
2019-02-18T21:13:05.567Z,36.73
2019-02-18T21:15:34.499Z,30.80
2019-02-18T21:18:03.390Z,27.07
2019-02-18T21:20:32.206Z,49.13
2019-02-18T21:23:00.716Z,33.13
2019-02-18T21:25:29.200Z,27.40
2019-02-18T21:27:57.956Z,25.27
2019-02-18T21:30:28.876Z,44.27
2019-02-18T21:32:57.581Z,57.65
2019-02-18T21:35:26.226Z,26.25
2019-02-18T21:37:54.669Z,46.63
2019-02-18T21:40:23.384Z,30.82
2019-02-18T21:42:51.867Z,29.35
2019-02-18T21:45:20.339Z,42.40
2019-02-18T21:47:48.808Z,46.15
2019-02-18T21:50:17.300Z,29.15
2019-02-18T21:52:46.237Z,23.57
2019-02-18T21:55:14.958Z,54.33
2019-02-18T21:57:43.684Z,36.17
2019-02-18T22:00:16.645Z,37.25
2019-02-18T22:02:45.333Z,32.95
2019-02-18T22:05:14.407Z,30.57
2019-02-18T22:07:42.868Z,25.52
2019-02-18T22:10:11.344Z,92.20
2019-02-18T22:12:40.040Z,42.90
2019-02-18T22:15:08.844Z,13.65
2019-02-18T22:17:37.618Z,32.55
2019-02-18T22:20:07.088Z,35.48
2019-02-18T22:22:36.142Z,17.80
2019-02-18T22:25:05.153Z,31.68
2019-02-18T22:27:33.864Z,19.50
2019-02-18T22:30:02.308Z,17.92
2019-02-18T22:32:31.047Z,174.15
2019-02-18T22:35:02.849Z,51.85
2019-02-18T22:37:31.747Z,11.75
2019-02-18T22:40:00.473Z,18.20
2019-02-18T22:42:29.500Z,11.55
2019-02-18T22:44:57.948Z,16.48
2019-02-18T22:47:27.099Z,11.83
2019-02-18T22:49:55.639Z,10.15
2019-02-18T22:52:24.068Z,11.22
2019-02-18T22:54:52.817Z,9.60
2019-02-18T22:57:21.625Z,8.73
2019-02-18T22:59:51.645Z,10.08
2019-02-18T23:02:20.295Z,9.73
2019-02-18T23:04:49.437Z,9.80
2019-02-18T23:07:17.961Z,11.83
2019-02-18T23:09:46.463Z,22.95
2019-02-18T23:12:18.052Z,9.50
2019-02-18T23:14:50.468Z,9.35
2019-02-18T23:17:16.953Z,18.57
2019-02-18T23:19:45.436Z,18.20
2019-02-18T23:22:14.226Z,11.45
2019-02-18T23:24:43.013Z,13.62
2019-02-18T23:27:11.999Z,10.65
2019-02-18T23:29:40.750Z,10.58
2019-02-18T23:32:09.225Z,14.45
2019-02-18T23:34:37.959Z,10.93
2019-02-18T23:37:06.410Z,9.48
2019-02-18T23:39:35.067Z,31.65
2019-02-18T23:42:04.155Z,17.95
2019-02-18T23:44:32.829Z,9.08
2019-02-18T23:47:01.526Z,10.23
2019-02-18T23:49:30.188Z,20.02
2019-02-18T23:51:59.469Z,7.75
2019-02-18T23:54:28.137Z,14.07
2019-02-18T23:56:57.098Z,15.43
2019-02-18T23:59:26.135Z,10.10
